sensor_id;sensor_type;location;lat;lon;timestamp;P1;durP1;ratioP1;P2;durP2;ratioP2
7903;SDS011;3997;48.416;8.512;2023-07-13T00:02:08;2.42;;;2.28;;
7903;SDS011;3997;48.416;8.512;2023-07-13T00:04:35;3.05;;;2.30;;
7903;SDS011;3997;48.416;8.512;2023-07-13T00:07:04;2.80;;;2.50;;
7903;SDS011;3997;48.416;8.512;2023-07-13T00:09:30;3.13;;;2.50;;
7903;SDS011;3997;48.416;8.512;2023-07-13T00:11:57;2.85;;;2.67;;
7903;SDS011;3997;48.416;8.512;2023-07-13T00:14:24;2.78;;;2.60;;
7903;SDS011;3997;48.416;8.512;2023-07-13T00:16:51;2.90;;;2.70;;
7903;SDS011;3997;48.416;8.512;2023-07-13T00:19:17;2.92;;;2.65;;
7903;SDS011;3997;48.416;8.512;2023-07-13T00:21:43;3.08;;;2.88;;
7903;SDS011;3997;48.416;8.512;2023-07-13T00:24:11;4.40;;;2.50;;
7903;SDS011;3997;48.416;8.512;2023-07-13T00:26:39;4.63;;;2.65;;
7903;SDS011;3997;48.416;8.512;2023-07-13T00:29:05;4.15;;;2.60;;
7903;SDS011;3997;48.416;8.512;2023-07-13T00:31:33;2.70;;;2.42;;
7903;SDS011;3997;48.416;8.512;2023-07-13T00:34:00;2.50;;;2.30;;
7903;SDS011;3997;48.416;8.512;2023-07-13T00:36:27;3.03;;;2.47;;
7903;SDS011;3997;48.416;8.512;2023-07-13T00:38:53;2.30;;;2.20;;
7903;SDS011;3997;48.416;8.512;2023-07-13T00:41:21;3.47;;;2.28;;
7903;SDS011;3997;48.416;8.512;2023-07-13T00:43:48;2.42;;;2.33;;
7903;SDS011;3997;48.416;8.512;2023-07-13T00:46:16;2.92;;;2.55;;
7903;SDS011;3997;48.416;8.512;2023-07-13T00:48:42;2.42;;;2.22;;
7903;SDS011;3997;48.416;8.512;2023-07-13T00:51:10;4.70;;;2.67;;
7903;SDS011;3997;48.416;8.512;2023-07-13T00:53:37;2.50;;;2.30;;
7903;SDS011;3997;48.416;8.512;2023-07-13T00:56:04;3.00;;;2.53;;
7903;SDS011;3997;48.416;8.512;2023-07-13T00:58:33;2.75;;;2.55;;
7903;SDS011;3997;48.416;8.512;2023-07-13T01:00:59;3.13;;;2.50;;
7903;SDS011;3997;48.416;8.512;2023-07-13T01:03:26;2.30;;;2.20;;
7903;SDS011;3997;48.416;8.512;2023-07-13T01:05:52;2.58;;;2.38;;
7903;SDS011;3997;48.416;8.512;2023-07-13T01:08:19;2.50;;;2.30;;
7903;SDS011;3997;48.416;8.512;2023-07-13T01:10:53;3.80;;;2.40;;
7903;SDS011;3997;48.416;8.512;2023-07-13T01:13:19;3.90;;;2.30;;
7903;SDS011;3997;48.416;8.512;2023-07-13T01:15:48;2.55;;;2.33;;
7903;SDS011;3997;48.416;8.512;2023-07-13T01:18:16;2.80;;;2.60;;
7903;SDS011;3997;48.416;8.512;2023-07-13T01:20:49;4.03;;;2.60;;
7903;SDS011;3997;48.416;8.512;2023-07-13T01:23:16;4.45;;;2.45;;
7903;SDS011;3997;48.416;8.512;2023-07-13T01:25:44;2.58;;;2.47;;
7903;SDS011;3997;48.416;8.512;2023-07-13T01:28:10;5.07;;;2.30;;
7903;SDS011;3997;48.416;8.512;2023-07-13T01:30:37;2.85;;;2.60;;
7903;SDS011;3997;48.416;8.512;2023-07-13T01:33:05;3.50;;;2.30;;
7903;SDS011;3997;48.416;8.512;2023-07-13T01:35:32;2.60;;;2.33;;
7903;SDS011;3997;48.416;8.512;2023-07-13T01:38:00;2.88;;;2.47;;
7903;SDS011;3997;48.416;8.512;2023-07-13T01:40:27;3.45;;;2.75;;
7903;SDS011;3997;48.416;8.512;2023-07-13T01:42:53;2.40;;;2.30;;
7903;SDS011;3997;48.416;8.512;2023-07-13T01:45:20;2.63;;;2.30;;
7903;SDS011;3997;48.416;8.512;2023-07-13T01:47:46;3.15;;;2.70;;
7903;SDS011;3997;48.416;8.512;2023-07-13T01:50:13;2.70;;;2.50;;
7903;SDS011;3997;48.416;8.512;2023-07-13T01:52:39;2.83;;;2.63;;
7903;SDS011;3997;48.416;8.512;2023-07-13T01:55:07;2.63;;;2.42;;
7903;SDS011;3997;48.416;8.512;2023-07-13T01:57:34;4.25;;;2.60;;
7903;SDS011;3997;48.416;8.512;2023-07-13T02:00:02;3.85;;;2.95;;
7903;SDS011;3997;48.416;8.512;2023-07-13T02:02:29;2.70;;;2.50;;
7903;SDS011;3997;48.416;8.512;2023-07-13T02:04:56;4.45;;;2.30;;
7903;SDS011;3997;48.416;8.512;2023-07-13T02:07:22;4.70;;;2.45;;
7903;SDS011;3997;48.416;8.512;2023-07-13T02:09:49;2.78;;;2.35;;
7903;SDS011;3997;48.416;8.512;2023-07-13T02:12:17;3.05;;;2.67;;
7903;SDS011;3997;48.416;8.512;2023-07-13T02:14:43;2.70;;;2.50;;
7903;SDS011;3997;48.416;8.512;2023-07-13T02:17:10;3.28;;;2.28;;
7903;SDS011;3997;48.416;8.512;2023-07-13T02:19:36;3.90;;;2.60;;
7903;SDS011;3997;48.416;8.512;2023-07-13T02:22:03;2.33;;;2.17;;
7903;SDS011;3997;48.416;8.512;2023-07-13T02:24:29;2.70;;;2.50;;
7903;SDS011;3997;48.416;8.512;2023-07-13T02:26:56;4.65;;;2.40;;
7903;SDS011;3997;48.416;8.512;2023-07-13T02:29:24;3.00;;;2.35;;
7903;SDS011;3997;48.416;8.512;2023-07-13T02:31:50;2.25;;;2.10;;
7903;SDS011;3997;48.416;8.512;2023-07-13T02:34:16;2.70;;;2.50;;
7903;SDS011;3997;48.416;8.512;2023-07-13T02:36:43;7.28;;;2.58;;
7903;SDS011;3997;48.416;8.512;2023-07-13T02:39:09;2.95;;;2.72;;
7903;SDS011;3997;48.416;8.512;2023-07-13T02:41:37;4.03;;;2.50;;
7903;SDS011;3997;48.416;8.512;2023-07-13T02:44:04;3.30;;;2.67;;
7903;SDS011;3997;48.416;8.512;2023-07-13T02:46:32;4.95;;;2.65;;
7903;SDS011;3997;48.416;8.512;2023-07-13T02:48:59;4.10;;;2.85;;
7903;SDS011;3997;48.416;8.512;2023-07-13T02:51:26;4.05;;;2.55;;
7903;SDS011;3997;48.416;8.512;2023-07-13T02:53:52;2.95;;;2.25;;
7903;SDS011;3997;48.416;8.512;2023-07-13T02:56:21;5.22;;;2.85;;
7903;SDS011;3997;48.416;8.512;2023-07-13T02:58:48;3.17;;;2.90;;
7903;SDS011;3997;48.416;8.512;2023-07-13T03:01:14;3.33;;;2.85;;
7903;SDS011;3997;48.416;8.512;2023-07-13T03:03:45;3.35;;;3.05;;
7903;SDS011;3997;48.416;8.512;2023-07-13T03:06:12;4.13;;;3.08;;
7903;SDS011;3997;48.416;8.512;2023-07-13T03:08:39;4.18;;;3.28;;
7903;SDS011;3997;48.416;8.512;2023-07-13T03:11:06;4.40;;;3.28;;
7903;SDS011;3997;48.416;8.512;2023-07-13T03:13:33;4.25;;;3.10;;
7903;SDS011;3997;48.416;8.512;2023-07-13T03:15:59;4.65;;;2.70;;
7903;SDS011;3997;48.416;8.512;2023-07-13T03:18:26;5.05;;;2.63;;
7903;SDS011;3997;48.416;8.512;2023-07-13T03:20:54;6.07;;;2.55;;
7903;SDS011;3997;48.416;8.512;2023-07-13T03:23:20;3.03;;;2.78;;
7903;SDS011;3997;48.416;8.512;2023-07-13T03:25:47;4.10;;;2.95;;
7903;SDS011;3997;48.416;8.512;2023-07-13T03:28:14;3.90;;;2.90;;
7903;SDS011;3997;48.416;8.512;2023-07-13T03:30:41;3.63;;;2.28;;
7903;SDS011;3997;48.416;8.512;2023-07-13T03:33:07;5.03;;;2.88;;
7903;SDS011;3997;48.416;8.512;2023-07-13T03:35:34;3.28;;;3.00;;
7903;SDS011;3997;48.416;8.512;2023-07-13T03:38:02;3.45;;;3.00;;
7903;SDS011;3997;48.416;8.512;2023-07-13T03:40:29;7.53;;;3.35;;
7903;SDS011;3997;48.416;8.512;2023-07-13T03:42:55;4.35;;;2.92;;
7903;SDS011;3997;48.416;8.512;2023-07-13T03:45:22;4.72;;;2.83;;
7903;SDS011;3997;48.416;8.512;2023-07-13T03:47:48;3.05;;;2.58;;
7903;SDS011;3997;48.416;8.512;2023-07-13T03:50:15;4.75;;;3.00;;
7903;SDS011;3997;48.416;8.512;2023-07-13T03:52:41;3.13;;;2.78;;
7903;SDS011;3997;48.416;8.512;2023-07-13T03:55:09;3.63;;;2.75;;
7903;SDS011;3997;48.416;8.512;2023-07-13T03:57:36;6.22;;;3.13;;
7903;SDS011;3997;48.416;8.512;2023-07-13T04:00:03;3.85;;;3.15;;
7903;SDS011;3997;48.416;8.512;2023-07-13T04:02:31;3.88;;;3.30;;
7903;SDS011;3997;48.416;8.512;2023-07-13T04:04:57;3.47;;;3.20;;
7903;SDS011;3997;48.416;8.512;2023-07-13T04:07:23;4.72;;;3.03;;
7903;SDS011;3997;48.416;8.512;2023-07-13T04:09:50;4.22;;;3.05;;
7903;SDS011;3997;48.416;8.512;2023-07-13T04:12:18;3.50;;;3.30;;
7903;SDS011;3997;48.416;8.512;2023-07-13T04:14:44;4.20;;;3.40;;
7903;SDS011;3997;48.416;8.512;2023-07-13T04:17:11;3.88;;;3.58;;
7903;SDS011;3997;48.416;8.512;2023-07-13T04:19:37;3.72;;;3.42;;
7903;SDS011;3997;48.416;8.512;2023-07-13T04:22:04;3.75;;;3.42;;
7903;SDS011;3997;48.416;8.512;2023-07-13T04:24:30;5.40;;;3.63;;
7903;SDS011;3997;48.416;8.512;2023-07-13T04:26:57;4.68;;;3.95;;
7903;SDS011;3997;48.416;8.512;2023-07-13T04:29:26;6.70;;;3.70;;
7903;SDS011;3997;48.416;8.512;2023-07-13T04:31:52;4.43;;;3.50;;
7903;SDS011;3997;48.416;8.512;2023-07-13T04:34:19;3.60;;;3.40;;
7903;SDS011;3997;48.416;8.512;2023-07-13T04:36:45;3.67;;;3.38;;
7903;SDS011;3997;48.416;8.512;2023-07-13T04:39:11;3.72;;;3.42;;
7903;SDS011;3997;48.416;8.512;2023-07-13T04:41:38;3.97;;;3.67;;
7903;SDS011;3997;48.416;8.512;2023-07-13T04:44:05;3.72;;;3.53;;
7903;SDS011;3997;48.416;8.512;2023-07-13T04:46:33;4.22;;;3.95;;
7903;SDS011;3997;48.416;8.512;2023-07-13T04:48:59;4.28;;;3.97;;
7903;SDS011;3997;48.416;8.512;2023-07-13T04:51:29;5.90;;;3.88;;
7903;SDS011;3997;48.416;8.512;2023-07-13T04:53:55;5.70;;;3.53;;
7903;SDS011;3997;48.416;8.512;2023-07-13T04:56:21;4.53;;;3.60;;
7903;SDS011;3997;48.416;8.512;2023-07-13T04:58:48;3.83;;;3.53;;
7903;SDS011;3997;48.416;8.512;2023-07-13T05:01:14;3.92;;;3.67;;
7903;SDS011;3997;48.416;8.512;2023-07-13T05:03:42;5.63;;;3.70;;
7903;SDS011;3997;48.416;8.512;2023-07-13T05:06:08;5.00;;;3.78;;
7903;SDS011;3997;48.416;8.512;2023-07-13T05:08:36;3.78;;;3.58;;
7903;SDS011;3997;48.416;8.512;2023-07-13T05:11:02;4.97;;;3.30;;
7903;SDS011;3997;48.416;8.512;2023-07-13T05:13:29;3.90;;;3.70;;
7903;SDS011;3997;48.416;8.512;2023-07-13T05:15:56;5.05;;;3.58;;
7903;SDS011;3997;48.416;8.512;2023-07-13T05:18:23;4.10;;;3.70;;
7903;SDS011;3997;48.416;8.512;2023-07-13T05:20:57;4.10;;;3.80;;
7903;SDS011;3997;48.416;8.512;2023-07-13T05:23:24;4.43;;;4.03;;
7903;SDS011;3997;48.416;8.512;2023-07-13T05:25:50;3.78;;;3.58;;
7903;SDS011;3997;48.416;8.512;2023-07-13T05:28:17;4.30;;;4.00;;
7903;SDS011;3997;48.416;8.512;2023-07-13T05:30:45;4.00;;;3.72;;
7903;SDS011;3997;48.416;8.512;2023-07-13T05:33:11;4.38;;;3.85;;
7903;SDS011;3997;48.416;8.512;2023-07-13T05:35:38;4.03;;;3.83;;
7903;SDS011;3997;48.416;8.512;2023-07-13T05:38:06;3.85;;;3.65;;
7903;SDS011;3997;48.416;8.512;2023-07-13T05:40:32;4.30;;;3.80;;
7903;SDS011;3997;48.416;8.512;2023-07-13T05:42:59;4.28;;;3.97;;
7903;SDS011;3997;48.416;8.512;2023-07-13T05:45:25;3.80;;;3.50;;
7903;SDS011;3997;48.416;8.512;2023-07-13T05:47:52;3.92;;;3.60;;
7903;SDS011;3997;48.416;8.512;2023-07-13T05:50:18;6.13;;;3.88;;
7903;SDS011;3997;48.416;8.512;2023-07-13T05:52:45;5.03;;;3.75;;
7903;SDS011;3997;48.416;8.512;2023-07-13T05:55:13;4.68;;;4.32;;
7903;SDS011;3997;48.416;8.512;2023-07-13T05:57:40;3.97;;;3.67;;
7903;SDS011;3997;48.416;8.512;2023-07-13T06:00:07;4.10;;;3.90;;
7903;SDS011;3997;48.416;8.512;2023-07-13T06:02:35;4.18;;;3.80;;
7903;SDS011;3997;48.416;8.512;2023-07-13T06:05:01;4.07;;;3.60;;
7903;SDS011;3997;48.416;8.512;2023-07-13T06:07:27;4.85;;;3.90;;
7903;SDS011;3997;48.416;8.512;2023-07-13T06:09:55;3.80;;;3.60;;
7903;SDS011;3997;48.416;8.512;2023-07-13T06:12:23;4.22;;;3.92;;
7903;SDS011;3997;48.416;8.512;2023-07-13T06:14:49;4.22;;;3.83;;
7903;SDS011;3997;48.416;8.512;2023-07-13T06:17:16;3.80;;;3.60;;
7903;SDS011;3997;48.416;8.512;2023-07-13T06:19:43;4.35;;;3.63;;
7903;SDS011;3997;48.416;8.512;2023-07-13T06:22:10;4.00;;;3.70;;
7903;SDS011;3997;48.416;8.512;2023-07-13T06:24:37;4.05;;;3.40;;
7903;SDS011;3997;48.416;8.512;2023-07-13T06:27:04;3.53;;;3.10;;
7903;SDS011;3997;48.416;8.512;2023-07-13T06:29:32;3.40;;;3.10;;
7903;SDS011;3997;48.416;8.512;2023-07-13T06:31:59;4.35;;;3.35;;
7903;SDS011;3997;48.416;8.512;2023-07-13T06:34:25;3.83;;;3.63;;
7903;SDS011;3997;48.416;8.512;2023-07-13T06:36:52;3.33;;;3.03;;
7903;SDS011;3997;48.416;8.512;2023-07-13T06:39:21;3.58;;;3.28;;
7903;SDS011;3997;48.416;8.512;2023-07-13T06:41:47;3.00;;;2.90;;
7903;SDS011;3997;48.416;8.512;2023-07-13T06:44:13;3.38;;;3.10;;
7903;SDS011;3997;48.416;8.512;2023-07-13T06:46:41;3.42;;;2.90;;
7903;SDS011;3997;48.416;8.512;2023-07-13T06:49:08;7.40;;;2.88;;
7903;SDS011;3997;48.416;8.512;2023-07-13T06:51:34;3.35;;;3.05;;
7903;SDS011;3997;48.416;8.512;2023-07-13T06:54:01;3.30;;;3.00;;
7903;SDS011;3997;48.416;8.512;2023-07-13T06:56:27;3.10;;;2.83;;
7903;SDS011;3997;48.416;8.512;2023-07-13T06:58:54;3.35;;;3.15;;
7903;SDS011;3997;48.416;8.512;2023-07-13T07:01:20;4.80;;;3.10;;
7903;SDS011;3997;48.416;8.512;2023-07-13T07:03:48;4.38;;;2.90;;
7903;SDS011;3997;48.416;8.512;2023-07-13T07:06:16;4.85;;;3.30;;
7903;SDS011;3997;48.416;8.512;2023-07-13T07:08:45;3.58;;;3.30;;
7903;SDS011;3997;48.416;8.512;2023-07-13T07:11:12;3.92;;;3.53;;
7903;SDS011;3997;48.416;8.512;2023-07-13T07:13:39;3.50;;;3.30;;
7903;SDS011;3997;48.416;8.512;2023-07-13T07:16:06;3.65;;;3.35;;
7903;SDS011;3997;48.416;8.512;2023-07-13T07:18:33;3.55;;;3.30;;
7903;SDS011;3997;48.416;8.512;2023-07-13T07:21:01;4.45;;;3.30;;
7903;SDS011;3997;48.416;8.512;2023-07-13T07:23:28;3.45;;;3.25;;
7903;SDS011;3997;48.416;8.512;2023-07-13T07:25:55;3.42;;;3.33;;
7903;SDS011;3997;48.416;8.512;2023-07-13T07:28:21;3.42;;;3.22;;
7903;SDS011;3997;48.416;8.512;2023-07-13T07:30:48;3.47;;;3.20;;
7903;SDS011;3997;48.416;8.512;2023-07-13T07:33:15;3.65;;;3.45;;
7903;SDS011;3997;48.416;8.512;2023-07-13T07:35:42;3.50;;;3.30;;
7903;SDS011;3997;48.416;8.512;2023-07-13T07:38:10;4.80;;;3.40;;
7903;SDS011;3997;48.416;8.512;2023-07-13T07:40:37;3.45;;;3.15;;
7903;SDS011;3997;48.416;8.512;2023-07-13T07:43:03;4.03;;;3.72;;
7903;SDS011;3997;48.416;8.512;2023-07-13T07:45:29;4.05;;;3.75;;
7903;SDS011;3997;48.416;8.512;2023-07-13T07:47:56;3.80;;;3.60;;
7903;SDS011;3997;48.416;8.512;2023-07-13T07:50:24;3.45;;;3.25;;
7903;SDS011;3997;48.416;8.512;2023-07-13T07:52:50;3.65;;;3.35;;
7903;SDS011;3997;48.416;8.512;2023-07-13T07:55:18;4.20;;;3.80;;
7903;SDS011;3997;48.416;8.512;2023-07-13T07:57:44;4.82;;;3.72;;
7903;SDS011;3997;48.416;8.512;2023-07-13T08:00:11;3.90;;;3.70;;
7903;SDS011;3997;48.416;8.512;2023-07-13T08:02:38;3.60;;;3.30;;
7903;SDS011;3997;48.416;8.512;2023-07-13T08:05:06;4.05;;;3.75;;
7903;SDS011;3997;48.416;8.512;2023-07-13T08:07:33;4.30;;;3.90;;
7903;SDS011;3997;48.416;8.512;2023-07-13T08:09:59;3.92;;;3.70;;
7903;SDS011;3997;48.416;8.512;2023-07-13T08:12:27;5.35;;;4.00;;
7903;SDS011;3997;48.416;8.512;2023-07-13T08:14:54;5.30;;;4.00;;
7903;SDS011;3997;48.416;8.512;2023-07-13T08:17:22;4.25;;;3.95;;
7903;SDS011;3997;48.416;8.512;2023-07-13T08:19:49;3.60;;;3.30;;
7903;SDS011;3997;48.416;8.512;2023-07-13T08:22:15;3.55;;;3.35;;
7903;SDS011;3997;48.416;8.512;2023-07-13T08:24:42;4.45;;;3.20;;
7903;SDS011;3997;48.416;8.512;2023-07-13T08:27:08;3.42;;;3.30;;
7903;SDS011;3997;48.416;8.512;2023-07-13T08:29:37;4.13;;;3.60;;
7903;SDS011;3997;48.416;8.512;2023-07-13T08:32:05;5.20;;;3.67;;
7903;SDS011;3997;48.416;8.512;2023-07-13T08:34:34;3.35;;;3.10;;
7903;SDS011;3997;48.416;8.512;2023-07-13T08:37:01;3.53;;;3.40;;
7903;SDS011;3997;48.416;8.512;2023-07-13T08:39:27;3.60;;;3.40;;
7903;SDS011;3997;48.416;8.512;2023-07-13T08:41:56;3.72;;;3.53;;
7903;SDS011;3997;48.416;8.512;2023-07-13T08:44:26;3.90;;;3.60;;
7903;SDS011;3997;48.416;8.512;2023-07-13T08:46:56;3.72;;;3.53;;
7903;SDS011;3997;48.416;8.512;2023-07-13T08:49:25;4.45;;;3.70;;
7903;SDS011;3997;48.416;8.512;2023-07-13T08:51:53;4.75;;;3.60;;
7903;SDS011;3997;48.416;8.512;2023-07-13T08:54:21;3.70;;;3.40;;
7903;SDS011;3997;48.416;8.512;2023-07-13T08:56:49;3.55;;;3.35;;
7903;SDS011;3997;48.416;8.512;2023-07-13T08:59:18;4.47;;;3.50;;
7903;SDS011;3997;48.416;8.512;2023-07-13T09:01:47;3.20;;;3.10;;
7903;SDS011;3997;48.416;8.512;2023-07-13T09:04:18;4.07;;;3.67;;
7903;SDS011;3997;48.416;8.512;2023-07-13T09:06:57;3.92;;;3.65;;
7903;SDS011;3997;48.416;8.512;2023-07-13T09:09:28;3.85;;;3.40;;
7903;SDS011;3997;48.416;8.512;2023-07-13T09:12:00;3.90;;;3.60;;
7903;SDS011;3997;48.416;8.512;2023-07-13T09:14:37;4.03;;;3.72;;
7903;SDS011;3997;48.416;8.512;2023-07-13T09:17:10;5.43;;;4.10;;
7903;SDS011;3997;48.416;8.512;2023-07-13T09:19:39;4.70;;;4.18;;
7903;SDS011;3997;48.416;8.512;2023-07-13T09:22:09;13.32;;;4.38;;
7903;SDS011;3997;48.416;8.512;2023-07-13T09:24:38;4.72;;;4.28;;
7903;SDS011;3997;48.416;8.512;2023-07-13T09:27:15;4.40;;;4.03;;
7903;SDS011;3997;48.416;8.512;2023-07-13T09:29:45;4.20;;;3.90;;
7903;SDS011;3997;48.416;8.512;2023-07-13T09:32:13;3.97;;;3.72;;
7903;SDS011;3997;48.416;8.512;2023-07-13T09:34:42;3.85;;;3.65;;
7903;SDS011;3997;48.416;8.512;2023-07-13T09:37:08;4.22;;;3.90;;
7903;SDS011;3997;48.416;8.512;2023-07-13T09:39:35;4.13;;;3.83;;
7903;SDS011;3997;48.416;8.512;2023-07-13T09:42:03;4.25;;;3.88;;
7903;SDS011;3997;48.416;8.512;2023-07-13T09:44:33;3.70;;;3.50;;
7903;SDS011;3997;48.416;8.512;2023-07-13T09:47:00;3.83;;;3.53;;
7903;SDS011;3997;48.416;8.512;2023-07-13T09:49:28;3.58;;;3.35;;
7903;SDS011;3997;48.416;8.512;2023-07-13T09:51:59;3.60;;;3.40;;
7903;SDS011;3997;48.416;8.512;2023-07-13T09:54:27;4.57;;;3.53;;
7903;SDS011;3997;48.416;8.512;2023-07-13T09:56:54;3.50;;;3.30;;
7903;SDS011;3997;48.416;8.512;2023-07-13T09:59:21;3.50;;;3.30;;
7903;SDS011;3997;48.416;8.512;2023-07-13T10:01:49;4.95;;;3.75;;
7903;SDS011;3997;48.416;8.512;2023-07-13T10:04:16;3.15;;;2.95;;
7903;SDS011;3997;48.416;8.512;2023-07-13T10:06:44;3.72;;;3.42;;
7903;SDS011;3997;48.416;8.512;2023-07-13T10:09:14;3.40;;;3.20;;
7903;SDS011;3997;48.416;8.512;2023-07-13T10:11:41;3.10;;;2.97;;
7903;SDS011;3997;48.416;8.512;2023-07-13T10:14:10;3.60;;;3.40;;
7903;SDS011;3997;48.416;8.512;2023-07-13T10:16:37;3.63;;;3.30;;
7903;SDS011;3997;48.416;8.512;2023-07-13T10:19:05;3.60;;;3.40;;
7903;SDS011;3997;48.416;8.512;2023-07-13T10:21:34;3.25;;;3.05;;
7903;SDS011;3997;48.416;8.512;2023-07-13T10:24:03;4.43;;;3.35;;
7903;SDS011;3997;48.416;8.512;2023-07-13T10:26:32;3.40;;;3.30;;
7903;SDS011;3997;48.416;8.512;2023-07-13T10:29:01;3.20;;;3.00;;
7903;SDS011;3997;48.416;8.512;2023-07-13T10:31:29;3.38;;;3.17;;
7903;SDS011;3997;48.416;8.512;2023-07-13T10:33:56;3.50;;;3.33;;
7903;SDS011;3997;48.416;8.512;2023-07-13T10:36:31;3.70;;;3.40;;
7903;SDS011;3997;48.416;8.512;2023-07-13T10:38:59;3.75;;;3.47;;
7903;SDS011;3997;48.416;8.512;2023-07-13T10:41:27;3.30;;;3.15;;
7903;SDS011;3997;48.416;8.512;2023-07-13T10:43:57;3.40;;;3.20;;
7903;SDS011;3997;48.416;8.512;2023-07-13T10:46:26;3.60;;;3.40;;
7903;SDS011;3997;48.416;8.512;2023-07-13T10:48:54;3.40;;;3.20;;
7903;SDS011;3997;48.416;8.512;2023-07-13T10:51:21;3.45;;;3.13;;
7903;SDS011;3997;48.416;8.512;2023-07-13T10:53:48;3.30;;;3.10;;
7903;SDS011;3997;48.416;8.512;2023-07-13T10:56:35;3.20;;;3.00;;
7903;SDS011;3997;48.416;8.512;2023-07-13T10:59:05;3.17;;;2.90;;
7903;SDS011;3997;48.416;8.512;2023-07-13T11:01:39;2.97;;;2.88;;
7903;SDS011;3997;48.416;8.512;2023-07-13T11:04:08;3.25;;;3.05;;
7903;SDS011;3997;48.416;8.512;2023-07-13T11:06:38;3.33;;;3.13;;
7903;SDS011;3997;48.416;8.512;2023-07-13T11:09:19;3.30;;;3.00;;
7903;SDS011;3997;48.416;8.512;2023-07-13T11:11:45;3.30;;;3.00;;
7903;SDS011;3997;48.416;8.512;2023-07-13T11:14:34;3.17;;;3.03;;
7903;SDS011;3997;48.416;8.512;2023-07-13T11:19:42;3.40;;;3.10;;
7903;SDS011;3997;48.416;8.512;2023-07-13T11:22:10;3.40;;;3.25;;
7903;SDS011;3997;48.416;8.512;2023-07-13T11:27:37;3.30;;;3.03;;
7903;SDS011;3997;48.416;8.512;2023-07-13T11:33:10;3.40;;;3.10;;
7903;SDS011;3997;48.416;8.512;2023-07-13T11:35:49;2.95;;;2.85;;
7903;SDS011;3997;48.416;8.512;2023-07-13T11:38:18;3.08;;;2.97;;
7903;SDS011;3997;48.416;8.512;2023-07-13T11:40:45;3.10;;;2.80;;
7903;SDS011;3997;48.416;8.512;2023-07-13T11:43:12;4.70;;;3.20;;
7903;SDS011;3997;48.416;8.512;2023-07-13T11:45:39;3.65;;;3.03;;
7903;SDS011;3997;48.416;8.512;2023-07-13T11:48:16;3.45;;;3.15;;
7903;SDS011;3997;48.416;8.512;2023-07-13T11:50:43;2.83;;;2.72;;
7903;SDS011;3997;48.416;8.512;2023-07-13T11:53:15;3.15;;;3.05;;
7903;SDS011;3997;48.416;8.512;2023-07-13T11:55:42;2.97;;;2.78;;
7903;SDS011;3997;48.416;8.512;2023-07-13T11:58:09;3.05;;;2.95;;
7903;SDS011;3997;48.416;8.512;2023-07-13T12:00:36;3.17;;;3.00;;
7903;SDS011;3997;48.416;8.512;2023-07-13T12:03:05;3.20;;;3.00;;
7903;SDS011;3997;48.416;8.512;2023-07-13T12:05:33;3.33;;;3.00;;
7903;SDS011;3997;48.416;8.512;2023-07-13T12:08:00;3.65;;;3.00;;
7903;SDS011;3997;48.416;8.512;2023-07-13T12:10:34;3.10;;;2.90;;
7903;SDS011;3997;48.416;8.512;2023-07-13T12:13:01;3.28;;;3.08;;
7903;SDS011;3997;48.416;8.512;2023-07-13T12:15:28;3.08;;;2.97;;
7903;SDS011;3997;48.416;8.512;2023-07-13T12:17:57;3.72;;;3.00;;
7903;SDS011;3997;48.416;8.512;2023-07-13T12:20:26;3.35;;;3.10;;
7903;SDS011;3997;48.416;8.512;2023-07-13T12:22:54;3.10;;;3.00;;
7903;SDS011;3997;48.416;8.512;2023-07-13T12:25:28;3.03;;;2.83;;
7903;SDS011;3997;48.416;8.512;2023-07-13T12:27:55;3.10;;;2.85;;
7903;SDS011;3997;48.416;8.512;2023-07-13T12:30:23;3.08;;;2.97;;
7903;SDS011;3997;48.416;8.512;2023-07-13T12:32:55;3.95;;;3.00;;
7903;SDS011;3997;48.416;8.512;2023-07-13T12:35:22;3.38;;;3.10;;
7903;SDS011;3997;48.416;8.512;2023-07-13T12:37:48;3.00;;;2.90;;
7903;SDS011;3997;48.416;8.512;2023-07-13T12:40:17;2.83;;;2.72;;
7903;SDS011;3997;48.416;8.512;2023-07-13T12:42:45;3.35;;;3.10;;
7903;SDS011;3997;48.416;8.512;2023-07-13T12:45:18;3.53;;;3.22;;
7903;SDS011;3997;48.416;8.512;2023-07-13T12:47:48;3.20;;;2.90;;
7903;SDS011;3997;48.416;8.512;2023-07-13T12:50:15;3.13;;;2.85;;
7903;SDS011;3997;48.416;8.512;2023-07-13T12:52:43;3.13;;;2.90;;
7903;SDS011;3997;48.416;8.512;2023-07-13T12:55:11;3.00;;;2.90;;
7903;SDS011;3997;48.416;8.512;2023-07-13T12:57:41;4.20;;;3.22;;
7903;SDS011;3997;48.416;8.512;2023-07-13T13:00:24;5.20;;;3.03;;
7903;SDS011;3997;48.416;8.512;2023-07-13T13:02:51;2.72;;;2.63;;
7903;SDS011;3997;48.416;8.512;2023-07-13T13:05:18;3.40;;;3.20;;
7903;SDS011;3997;48.416;8.512;2023-07-13T13:07:47;3.50;;;3.20;;
7903;SDS011;3997;48.416;8.512;2023-07-13T13:10:13;3.15;;;2.97;;
7903;SDS011;3997;48.416;8.512;2023-07-13T13:12:41;3.20;;;3.00;;
7903;SDS011;3997;48.416;8.512;2023-07-13T13:15:08;3.35;;;3.15;;
7903;SDS011;3997;48.416;8.512;2023-07-13T13:17:36;3.55;;;3.22;;
7903;SDS011;3997;48.416;8.512;2023-07-13T13:20:04;3.00;;;2.80;;
7903;SDS011;3997;48.416;8.512;2023-07-13T13:22:31;3.40;;;2.78;;
7903;SDS011;3997;48.416;8.512;2023-07-13T13:24:57;2.90;;;2.70;;
7903;SDS011;3997;48.416;8.512;2023-07-13T13:27:25;3.28;;;2.97;;
7903;SDS011;3997;48.416;8.512;2023-07-13T13:29:53;3.00;;;2.90;;
7903;SDS011;3997;48.416;8.512;2023-07-13T13:32:19;3.10;;;2.90;;
7903;SDS011;3997;48.416;8.512;2023-07-13T13:34:46;3.28;;;2.97;;
7903;SDS011;3997;48.416;8.512;2023-07-13T13:37:16;2.75;;;2.65;;
7903;SDS011;3997;48.416;8.512;2023-07-13T13:39:43;2.78;;;2.60;;
7903;SDS011;3997;48.416;8.512;2023-07-13T13:42:09;3.05;;;2.85;;
7903;SDS011;3997;48.416;8.512;2023-07-13T13:44:36;2.90;;;2.70;;
7903;SDS011;3997;48.416;8.512;2023-07-13T13:47:04;3.70;;;3.17;;
7903;SDS011;3997;48.416;8.512;2023-07-13T13:49:30;2.83;;;2.63;;
7903;SDS011;3997;48.416;8.512;2023-07-13T13:51:57;3.10;;;2.90;;
7903;SDS011;3997;48.416;8.512;2023-07-13T13:54:24;3.00;;;2.90;;
7903;SDS011;3997;48.416;8.512;2023-07-13T13:56:51;3.20;;;2.97;;
7903;SDS011;3997;48.416;8.512;2023-07-13T13:59:18;3.20;;;3.00;;
7903;SDS011;3997;48.416;8.512;2023-07-13T14:01:46;3.30;;;3.10;;
7903;SDS011;3997;48.416;8.512;2023-07-13T14:04:16;3.10;;;2.90;;
7903;SDS011;3997;48.416;8.512;2023-07-13T14:06:44;3.30;;;3.10;;
7903;SDS011;3997;48.416;8.512;2023-07-13T14:09:10;3.35;;;3.08;;
7903;SDS011;3997;48.416;8.512;2023-07-13T14:11:38;3.30;;;3.10;;
7903;SDS011;3997;48.416;8.512;2023-07-13T14:14:08;2.63;;;2.53;;
7903;SDS011;3997;48.416;8.512;2023-07-13T14:16:37;3.30;;;3.10;;
7903;SDS011;3997;48.416;8.512;2023-07-13T14:19:03;5.22;;;2.92;;
7903;SDS011;3997;48.416;8.512;2023-07-13T14:21:31;3.08;;;2.88;;
7903;SDS011;3997;48.416;8.512;2023-07-13T14:23:57;3.05;;;2.85;;
7903;SDS011;3997;48.416;8.512;2023-07-13T14:26:24;3.15;;;2.95;;
7903;SDS011;3997;48.416;8.512;2023-07-13T14:28:52;3.25;;;3.05;;
7903;SDS011;3997;48.416;8.512;2023-07-13T14:31:19;3.70;;;3.05;;
7903;SDS011;3997;48.416;8.512;2023-07-13T14:33:45;3.38;;;2.97;;
7903;SDS011;3997;48.416;8.512;2023-07-13T14:36:16;4.78;;;3.50;;
7903;SDS011;3997;48.416;8.512;2023-07-13T14:38:48;3.40;;;3.17;;
7903;SDS011;3997;48.416;8.512;2023-07-13T14:41:15;3.15;;;2.95;;
7903;SDS011;3997;48.416;8.512;2023-07-13T14:43:41;3.50;;;3.30;;
7903;SDS011;3997;48.416;8.512;2023-07-13T14:46:08;3.38;;;3.15;;
7903;SDS011;3997;48.416;8.512;2023-07-13T14:48:42;3.40;;;3.20;;
7903;SDS011;3997;48.416;8.512;2023-07-13T14:51:09;3.33;;;3.13;;
7903;SDS011;3997;48.416;8.512;2023-07-13T14:53:36;2.95;;;2.85;;
7903;SDS011;3997;48.416;8.512;2023-07-13T14:56:08;3.20;;;3.00;;
7903;SDS011;3997;48.416;8.512;2023-07-13T14:58:35;3.58;;;3.28;;
7903;SDS011;3997;48.416;8.512;2023-07-13T15:01:01;5.03;;;3.13;;
7903;SDS011;3997;48.416;8.512;2023-07-13T15:03:27;3.67;;;3.42;;
7903;SDS011;3997;48.416;8.512;2023-07-13T15:05:54;3.60;;;3.40;;
7903;SDS011;3997;48.416;8.512;2023-07-13T15:08:20;5.53;;;3.70;;
7903;SDS011;3997;48.416;8.512;2023-07-13T15:10:47;3.47;;;3.20;;
7903;SDS011;3997;48.416;8.512;2023-07-13T15:13:15;3.83;;;3.53;;
7903;SDS011;3997;48.416;8.512;2023-07-13T15:15:43;3.80;;;3.53;;
7903;SDS011;3997;48.416;8.512;2023-07-13T15:18:10;3.72;;;3.53;;
7903;SDS011;3997;48.416;8.512;2023-07-13T15:20:37;3.40;;;3.20;;
7903;SDS011;3997;48.416;8.512;2023-07-13T15:23:04;3.40;;;3.10;;
7903;SDS011;3997;48.416;8.512;2023-07-13T15:25:32;3.22;;;3.10;;
7903;SDS011;3997;48.416;8.512;2023-07-13T15:27:59;3.55;;;3.42;;